sensor_id;sensor_type;location;lat;lon;timestamp;P1;durP1;ratioP1;P2;durP2;ratioP2
44588;SDS011;30298;52.562;13.414;2023-02-08T00:01:38;83.87;;;40.43;;
44588;SDS011;30298;52.562;13.414;2023-02-08T00:04:03;84.17;;;40.47;;
44588;SDS011;30298;52.562;13.414;2023-02-08T00:06:28;86.60;;;40.03;;
44588;SDS011;30298;52.562;13.414;2023-02-08T00:08:54;85.40;;;38.93;;
44588;SDS011;30298;52.562;13.414;2023-02-08T00:11:19;79.53;;;37.92;;
44588;SDS011;30298;52.562;13.414;2023-02-08T00:13:45;82.77;;;39.23;;
44588;SDS011;30298;52.562;13.414;2023-02-08T00:16:11;75.45;;;37.72;;
44588;SDS011;30298;52.562;13.414;2023-02-08T00:18:37;90.18;;;41.30;;
44588;SDS011;30298;52.562;13.414;2023-02-08T00:21:06;86.03;;;39.63;;
44588;SDS011;30298;52.562;13.414;2023-02-08T00:23:31;88.78;;;40.30;;
44588;SDS011;30298;52.562;13.414;2023-02-08T00:25:56;83.70;;;37.53;;
44588;SDS011;30298;52.562;13.414;2023-02-08T00:28:22;79.53;;;35.63;;
44588;SDS011;30298;52.562;13.414;2023-02-08T00:30:47;86.77;;;37.50;;
44588;SDS011;30298;52.562;13.414;2023-02-08T00:33:12;82.30;;;38.80;;
44588;SDS011;30298;52.562;13.414;2023-02-08T00:35:37;85.57;;;37.47;;
44588;SDS011;30298;52.562;13.414;2023-02-08T00:38:03;70.13;;;35.80;;
44588;SDS011;30298;52.562;13.414;2023-02-08T00:40:28;93.30;;;38.67;;
44588;SDS011;30298;52.562;13.414;2023-02-08T00:42:53;74.67;;;35.63;;
44588;SDS011;30298;52.562;13.414;2023-02-08T00:45:19;78.87;;;37.37;;
44588;SDS011;30298;52.562;13.414;2023-02-08T00:47:44;83.67;;;36.83;;
44588;SDS011;30298;52.562;13.414;2023-02-08T00:50:10;82.53;;;37.50;;
44588;SDS011;30298;52.562;13.414;2023-02-08T00:52:35;76.13;;;34.45;;
44588;SDS011;30298;52.562;13.414;2023-02-08T00:55:01;75.70;;;33.42;;
44588;SDS011;30298;52.562;13.414;2023-02-08T00:57:26;78.07;;;34.97;;
44588;SDS011;30298;52.562;13.414;2023-02-08T00:59:51;73.37;;;35.37;;
44588;SDS011;30298;52.562;13.414;2023-02-08T01:02:16;73.00;;;36.17;;
44588;SDS011;30298;52.562;13.414;2023-02-08T01:04:44;79.45;;;35.33;;
44588;SDS011;30298;52.562;13.414;2023-02-08T01:07:09;73.13;;;34.33;;
44588;SDS011;30298;52.562;13.414;2023-02-08T01:09:34;80.97;;;35.77;;
44588;SDS011;30298;52.562;13.414;2023-02-08T01:12:00;73.90;;;36.57;;
44588;SDS011;30298;52.562;13.414;2023-02-08T01:14:25;76.90;;;36.17;;
44588;SDS011;30298;52.562;13.414;2023-02-08T01:16:51;74.63;;;35.60;;
44588;SDS011;30298;52.562;13.414;2023-02-08T01:19:16;74.63;;;35.27;;
44588;SDS011;30298;52.562;13.414;2023-02-08T01:21:41;74.43;;;36.88;;
44588;SDS011;30298;52.562;13.414;2023-02-08T01:24:07;71.13;;;34.95;;
44588;SDS011;30298;52.562;13.414;2023-02-08T01:26:33;72.43;;;35.07;;
44588;SDS011;30298;52.562;13.414;2023-02-08T01:28:58;79.57;;;35.30;;
44588;SDS011;30298;52.562;13.414;2023-02-08T01:31:25;71.87;;;32.17;;
44588;SDS011;30298;52.562;13.414;2023-02-08T01:33:52;65.18;;;31.40;;
44588;SDS011;30298;52.562;13.414;2023-02-08T01:36:18;71.30;;;31.63;;
44588;SDS011;30298;52.562;13.414;2023-02-08T01:38:43;68.03;;;33.80;;
44588;SDS011;30298;52.562;13.414;2023-02-08T01:46:32;65.47;;;31.52;;
44588;SDS011;30298;52.562;13.414;2023-02-08T01:49:03;58.72;;;29.38;;
44588;SDS011;30298;52.562;13.414;2023-02-08T01:51:31;64.10;;;31.58;;
44588;SDS011;30298;52.562;13.414;2023-02-08T01:53:57;63.28;;;29.20;;
44588;SDS011;30298;52.562;13.414;2023-02-08T01:56:30;67.53;;;29.77;;
44588;SDS011;30298;52.562;13.414;2023-02-08T01:58:58;60.67;;;28.60;;
44588;SDS011;30298;52.562;13.414;2023-02-08T02:01:25;58.22;;;27.52;;
44588;SDS011;30298;52.562;13.414;2023-02-08T02:03:51;56.95;;;27.83;;
44588;SDS011;30298;52.562;13.414;2023-02-08T02:06:17;55.58;;;28.25;;
44588;SDS011;30298;52.562;13.414;2023-02-08T02:09:02;55.60;;;26.42;;
44588;SDS011;30298;52.562;13.414;2023-02-08T02:11:29;58.50;;;27.70;;
44588;SDS011;30298;52.562;13.414;2023-02-08T02:13:55;58.67;;;26.33;;
44588;SDS011;30298;52.562;13.414;2023-02-08T02:16:20;55.90;;;25.85;;
44588;SDS011;30298;52.562;13.414;2023-02-08T02:18:46;52.47;;;23.97;;
44588;SDS011;30298;52.562;13.414;2023-02-08T02:34:03;48.58;;;24.92;;
44588;SDS011;30298;52.562;13.414;2023-02-08T02:50:19;47.28;;;21.92;;
44588;SDS011;30298;52.562;13.414;2023-02-08T02:52:44;45.10;;;23.30;;
44588;SDS011;30298;52.562;13.414;2023-02-08T02:55:11;46.10;;;21.48;;
44588;SDS011;30298;52.562;13.414;2023-02-08T02:57:38;48.58;;;21.85;;
44588;SDS011;30298;52.562;13.414;2023-02-08T03:00:07;40.85;;;21.10;;
44588;SDS011;30298;52.562;13.414;2023-02-08T03:02:33;43.70;;;21.52;;
44588;SDS011;30298;52.562;13.414;2023-02-08T03:04:58;40.83;;;21.67;;
44588;SDS011;30298;52.562;13.414;2023-02-08T03:10:20;41.35;;;20.55;;
44588;SDS011;30298;52.562;13.414;2023-02-08T03:20:43;43.43;;;20.07;;
44588;SDS011;30298;52.562;13.414;2023-02-08T03:23:23;38.50;;;19.90;;
44588;SDS011;30298;52.562;13.414;2023-02-08T03:25:57;43.40;;;21.15;;
44588;SDS011;30298;52.562;13.414;2023-02-08T03:30:58;39.00;;;19.48;;
44588;SDS011;30298;52.562;13.414;2023-02-08T03:33:35;40.95;;;19.30;;
44588;SDS011;30298;52.562;13.414;2023-02-08T03:36:04;39.83;;;18.40;;
44588;SDS011;30298;52.562;13.414;2023-02-08T03:38:35;36.95;;;19.48;;
44588;SDS011;30298;52.562;13.414;2023-02-08T03:41:02;41.95;;;19.00;;
44588;SDS011;30298;52.562;13.414;2023-02-08T03:43:29;43.05;;;18.73;;
44588;SDS011;30298;52.562;13.414;2023-02-08T03:46:01;37.15;;;19.17;;
44588;SDS011;30298;52.562;13.414;2023-02-08T03:48:27;34.40;;;19.30;;
44588;SDS011;30298;52.562;13.414;2023-02-08T03:50:54;36.85;;;19.38;;
44588;SDS011;30298;52.562;13.414;2023-02-08T03:53:21;34.65;;;18.15;;
44588;SDS011;30298;52.562;13.414;2023-02-08T03:55:47;33.97;;;17.13;;
44588;SDS011;30298;52.562;13.414;2023-02-08T03:58:20;39.78;;;18.77;;
44588;SDS011;30298;52.562;13.414;2023-02-08T04:00:48;38.38;;;17.33;;
44588;SDS011;30298;52.562;13.414;2023-02-08T04:03:19;34.08;;;17.25;;
44588;SDS011;30298;52.562;13.414;2023-02-08T04:05:46;33.03;;;17.38;;
44588;SDS011;30298;52.562;13.414;2023-02-08T04:08:12;33.63;;;19.02;;
44588;SDS011;30298;52.562;13.414;2023-02-08T04:10:37;37.50;;;17.67;;
44588;SDS011;30298;52.562;13.414;2023-02-08T04:13:02;33.60;;;17.40;;
44588;SDS011;30298;52.562;13.414;2023-02-08T04:15:28;36.00;;;18.45;;
44588;SDS011;30298;52.562;13.414;2023-02-08T04:17:53;35.20;;;17.95;;
44588;SDS011;30298;52.562;13.414;2023-02-08T04:20:19;35.50;;;19.00;;
44588;SDS011;30298;52.562;13.414;2023-02-08T04:22:44;36.47;;;17.77;;
44588;SDS011;30298;52.562;13.414;2023-02-08T04:25:09;36.67;;;17.07;;
44588;SDS011;30298;52.562;13.414;2023-02-08T04:27:35;37.13;;;17.80;;
44588;SDS011;30298;52.562;13.414;2023-02-08T04:30:00;41.33;;;19.08;;
44588;SDS011;30298;52.562;13.414;2023-02-08T04:32:28;35.65;;;18.10;;
44588;SDS011;30298;52.562;13.414;2023-02-08T04:34:53;32.00;;;17.77;;
44588;SDS011;30298;52.562;13.414;2023-02-08T04:37:19;36.20;;;18.37;;
44588;SDS011;30298;52.562;13.414;2023-02-08T04:39:44;37.63;;;19.00;;
44588;SDS011;30298;52.562;13.414;2023-02-08T04:42:09;36.23;;;16.47;;
44588;SDS011;30298;52.562;13.414;2023-02-08T04:44:35;35.60;;;16.77;;
44588;SDS011;30298;52.562;13.414;2023-02-08T04:47:00;35.67;;;17.37;;
44588;SDS011;30298;52.562;13.414;2023-02-08T04:49:25;41.13;;;18.67;;
44588;SDS011;30298;52.562;13.414;2023-02-08T04:51:53;35.20;;;17.00;;
44588;SDS011;30298;52.562;13.414;2023-02-08T04:54:18;34.78;;;17.98;;
44588;SDS011;30298;52.562;13.414;2023-02-08T04:56:44;36.73;;;18.03;;
44588;SDS011;30298;52.562;13.414;2023-02-08T04:59:09;36.47;;;18.30;;
44588;SDS011;30298;52.562;13.414;2023-02-08T05:01:34;38.17;;;17.47;;
44588;SDS011;30298;52.562;13.414;2023-02-08T05:04:00;35.17;;;16.07;;
44588;SDS011;30298;52.562;13.414;2023-02-08T05:06:25;36.87;;;17.77;;
44588;SDS011;30298;52.562;13.414;2023-02-08T05:08:50;35.90;;;17.50;;
44588;SDS011;30298;52.562;13.414;2023-02-08T05:11:19;40.97;;;18.30;;
44588;SDS011;30298;52.562;13.414;2023-02-08T05:13:45;34.78;;;18.30;;
44588;SDS011;30298;52.562;13.414;2023-02-08T05:16:10;38.77;;;17.83;;
44588;SDS011;30298;52.562;13.414;2023-02-08T05:18:35;39.97;;;18.67;;
44588;SDS011;30298;52.562;13.414;2023-02-08T05:21:00;33.40;;;17.30;;
44588;SDS011;30298;52.562;13.414;2023-02-08T05:23:27;43.45;;;20.25;;
44588;SDS011;30298;52.562;13.414;2023-02-08T05:25:53;45.47;;;20.43;;
44588;SDS011;30298;52.562;13.414;2023-02-08T05:28:18;37.27;;;18.43;;
44588;SDS011;30298;52.562;13.414;2023-02-08T05:30:44;42.77;;;18.23;;
44588;SDS011;30298;52.562;13.414;2023-02-08T05:33:09;38.45;;;19.02;;
44588;SDS011;30298;52.562;13.414;2023-02-08T05:35:35;43.87;;;18.83;;
44588;SDS011;30298;52.562;13.414;2023-02-08T05:38:00;38.37;;;19.13;;
44588;SDS011;30298;52.562;13.414;2023-02-08T05:40:25;39.43;;;18.23;;
44588;SDS011;30298;52.562;13.414;2023-02-08T05:42:50;42.80;;;21.17;;
44588;SDS011;30298;52.562;13.414;2023-02-08T05:45:16;43.83;;;19.33;;
44588;SDS011;30298;52.562;13.414;2023-02-08T05:47:41;38.00;;;19.37;;
44588;SDS011;30298;52.562;13.414;2023-02-08T05:50:06;40.43;;;18.20;;
44588;SDS011;30298;52.562;13.414;2023-02-08T05:52:32;38.08;;;17.95;;
44588;SDS011;30298;52.562;13.414;2023-02-08T05:54:57;39.97;;;17.80;;
44588;SDS011;30298;52.562;13.414;2023-02-08T05:57:22;40.13;;;19.13;;
44588;SDS011;30298;52.562;13.414;2023-02-08T05:59:48;35.47;;;18.00;;
44588;SDS011;30298;52.562;13.414;2023-02-08T06:02:14;43.00;;;20.05;;
44588;SDS011;30298;52.562;13.414;2023-02-08T06:04:39;40.13;;;18.60;;
44588;SDS011;30298;52.562;13.414;2023-02-08T06:07:04;37.77;;;18.97;;
44588;SDS011;30298;52.562;13.414;2023-02-08T06:09:30;39.55;;;18.90;;
44588;SDS011;30298;52.562;13.414;2023-02-08T06:11:55;37.27;;;17.97;;
44588;SDS011;30298;52.562;13.414;2023-02-08T06:14:21;43.38;;;18.17;;
44588;SDS011;30298;52.562;13.414;2023-02-08T06:16:46;39.40;;;17.90;;
44588;SDS011;30298;52.562;13.414;2023-02-08T06:19:12;36.97;;;19.65;;
44588;SDS011;30298;52.562;13.414;2023-02-08T06:21:38;39.08;;;19.10;;
44588;SDS011;30298;52.562;13.414;2023-02-08T06:24:03;39.57;;;18.33;;
44588;SDS011;30298;52.562;13.414;2023-02-08T06:26:30;45.05;;;19.13;;
44588;SDS011;30298;52.562;13.414;2023-02-08T06:28:57;42.80;;;18.92;;
44588;SDS011;30298;52.562;13.414;2023-02-08T06:31:22;39.70;;;18.33;;
44588;SDS011;30298;52.562;13.414;2023-02-08T06:33:47;40.63;;;18.55;;
44588;SDS011;30298;52.562;13.414;2023-02-08T06:36:13;40.17;;;18.90;;
44588;SDS011;30298;52.562;13.414;2023-02-08T06:38:38;37.90;;;17.77;;
44588;SDS011;30298;52.562;13.414;2023-02-08T06:41:03;39.73;;;20.17;;
44588;SDS011;30298;52.562;13.414;2023-02-08T06:43:29;42.63;;;18.37;;
44588;SDS011;30298;52.562;13.414;2023-02-08T06:45:54;38.77;;;18.27;;
44588;SDS011;30298;52.562;13.414;2023-02-08T06:48:19;38.07;;;17.47;;
44588;SDS011;30298;52.562;13.414;2023-02-08T06:50:45;38.17;;;18.80;;
44588;SDS011;30298;52.562;13.414;2023-02-08T06:53:10;39.17;;;18.67;;
44588;SDS011;30298;52.562;13.414;2023-02-08T06:55:35;44.67;;;20.57;;
44588;SDS011;30298;52.562;13.414;2023-02-08T06:58:01;41.73;;;19.57;;
44588;SDS011;30298;52.562;13.414;2023-02-08T07:00:26;44.70;;;20.55;;
44588;SDS011;30298;52.562;13.414;2023-02-08T07:02:52;41.47;;;19.17;;
44588;SDS011;30298;52.562;13.414;2023-02-08T07:05:17;39.03;;;19.63;;
44588;SDS011;30298;52.562;13.414;2023-02-08T07:07:42;43.03;;;19.10;;
44588;SDS011;30298;52.562;13.414;2023-02-08T07:10:07;41.50;;;19.87;;
44588;SDS011;30298;52.562;13.414;2023-02-08T07:12:35;39.17;;;19.40;;
44588;SDS011;30298;52.562;13.414;2023-02-08T07:15:01;40.88;;;19.00;;
44588;SDS011;30298;52.562;13.414;2023-02-08T07:17:26;47.30;;;21.50;;
44588;SDS011;30298;52.562;13.414;2023-02-08T07:19:52;46.17;;;20.37;;
44588;SDS011;30298;52.562;13.414;2023-02-08T07:22:17;41.77;;;17.77;;
44588;SDS011;30298;52.562;13.414;2023-02-08T07:24:42;40.63;;;18.83;;
44588;SDS011;30298;52.562;13.414;2023-02-08T07:27:08;41.77;;;19.10;;
44588;SDS011;30298;52.562;13.414;2023-02-08T07:29:34;39.53;;;20.13;;
44588;SDS011;30298;52.562;13.414;2023-02-08T07:32:00;42.72;;;19.15;;
44588;SDS011;30298;52.562;13.414;2023-02-08T07:34:27;35.10;;;17.95;;
44588;SDS011;30298;52.562;13.414;2023-02-08T07:36:53;39.97;;;18.65;;
44588;SDS011;30298;52.562;13.414;2023-02-08T07:39:18;37.07;;;18.17;;
44588;SDS011;30298;52.562;13.414;2023-02-08T07:41:43;40.90;;;20.20;;
44588;SDS011;30298;52.562;13.414;2023-02-08T07:44:09;34.10;;;16.43;;
44588;SDS011;30298;52.562;13.414;2023-02-08T07:46:34;39.17;;;17.95;;
44588;SDS011;30298;52.562;13.414;2023-02-08T07:48:59;38.57;;;18.47;;
44588;SDS011;30298;52.562;13.414;2023-02-08T07:51:25;35.37;;;17.57;;
44588;SDS011;30298;52.562;13.414;2023-02-08T07:53:50;39.20;;;17.27;;
44588;SDS011;30298;52.562;13.414;2023-02-08T07:56:15;42.13;;;18.37;;
44588;SDS011;30298;52.562;13.414;2023-02-08T07:58:41;33.20;;;17.98;;
44588;SDS011;30298;52.562;13.414;2023-02-08T08:01:07;40.90;;;19.03;;
44588;SDS011;30298;52.562;13.414;2023-02-08T08:03:32;33.07;;;18.23;;
44588;SDS011;30298;52.562;13.414;2023-02-08T08:05:57;33.93;;;17.83;;
44588;SDS011;30298;52.562;13.414;2023-02-08T08:08:22;40.73;;;18.60;;
44588;SDS011;30298;52.562;13.414;2023-02-08T08:10:48;41.43;;;19.27;;
44588;SDS011;30298;52.562;13.414;2023-02-08T08:13:13;41.80;;;20.33;;
44588;SDS011;30298;52.562;13.414;2023-02-08T08:15:38;39.00;;;19.17;;
44588;SDS011;30298;52.562;13.414;2023-02-08T08:18:04;40.28;;;18.63;;
44588;SDS011;30298;52.562;13.414;2023-02-08T08:20:31;38.60;;;18.52;;
44588;SDS011;30298;52.562;13.414;2023-02-08T08:22:56;39.33;;;19.02;;
44588;SDS011;30298;52.562;13.414;2023-02-08T08:25:21;34.00;;;16.50;;
44588;SDS011;30298;52.562;13.414;2023-02-08T08:27:46;39.43;;;18.10;;
44588;SDS011;30298;52.562;13.414;2023-02-08T08:30:13;37.83;;;17.90;;
44588;SDS011;30298;52.562;13.414;2023-02-08T08:32:39;37.83;;;18.75;;
44588;SDS011;30298;52.562;13.414;2023-02-08T08:35:05;41.42;;;18.13;;
44588;SDS011;30298;52.562;13.414;2023-02-08T08:37:30;39.53;;;18.23;;
44588;SDS011;30298;52.562;13.414;2023-02-08T08:39:56;39.58;;;19.23;;
44588;SDS011;30298;52.562;13.414;2023-02-08T08:42:21;35.23;;;18.20;;
44588;SDS011;30298;52.562;13.414;2023-02-08T08:44:46;38.93;;;19.13;;
44588;SDS011;30298;52.562;13.414;2023-02-08T08:47:12;41.13;;;18.53;;
44588;SDS011;30298;52.562;13.414;2023-02-08T08:49:37;38.03;;;18.13;;
44588;SDS011;30298;52.562;13.414;2023-02-08T08:52:03;42.27;;;20.40;;
44588;SDS011;30298;52.562;13.414;2023-02-08T08:54:30;42.10;;;19.25;;
44588;SDS011;30298;52.562;13.414;2023-02-08T08:56:55;42.10;;;19.97;;
44588;SDS011;30298;52.562;13.414;2023-02-08T08:59:20;42.47;;;20.47;;
44588;SDS011;30298;52.562;13.414;2023-02-08T09:01:46;43.97;;;21.73;;
44588;SDS011;30298;52.562;13.414;2023-02-08T09:04:11;43.97;;;21.07;;
44588;SDS011;30298;52.562;13.414;2023-02-08T09:06:36;43.80;;;19.07;;
44588;SDS011;30298;52.562;13.414;2023-02-08T09:09:03;41.53;;;20.33;;
44588;SDS011;30298;52.562;13.414;2023-02-08T09:11:28;42.85;;;19.65;;
44588;SDS011;30298;52.562;13.414;2023-02-08T09:13:53;42.85;;;21.13;;
44588;SDS011;30298;52.562;13.414;2023-02-08T09:18:45;45.60;;;20.67;;
44588;SDS011;30298;52.562;13.414;2023-02-08T09:21:12;47.33;;;20.30;;
44588;SDS011;30298;52.562;13.414;2023-02-08T09:23:37;43.13;;;22.08;;
44588;SDS011;30298;52.562;13.414;2023-02-08T09:26:07;45.33;;;21.50;;
44588;SDS011;30298;52.562;13.414;2023-02-08T09:28:33;44.88;;;21.58;;
44588;SDS011;30298;52.562;13.414;2023-02-08T09:30:58;46.47;;;22.07;;
44588;SDS011;30298;52.562;13.414;2023-02-08T09:33:28;48.03;;;21.33;;
44588;SDS011;30298;52.562;13.414;2023-02-08T09:35:56;45.72;;;21.55;;
44588;SDS011;30298;52.562;13.414;2023-02-08T09:38:21;47.83;;;21.73;;
44588;SDS011;30298;52.562;13.414;2023-02-08T09:40:48;48.17;;;23.23;;
44588;SDS011;30298;52.562;13.414;2023-02-08T09:46:21;46.53;;;22.52;;
44588;SDS011;30298;52.562;13.414;2023-02-08T09:48:48;46.65;;;21.80;;
44588;SDS011;30298;52.562;13.414;2023-02-08T09:51:24;42.90;;;20.88;;
44588;SDS011;30298;52.562;13.414;2023-02-08T09:53:59;45.53;;;22.70;;
44588;SDS011;30298;52.562;13.414;2023-02-08T09:56:29;45.00;;;19.83;;
44588;SDS011;30298;52.562;13.414;2023-02-08T09:58:56;41.30;;;20.38;;
44588;SDS011;30298;52.562;13.414;2023-02-08T10:01:27;41.25;;;20.92;;
44588;SDS011;30298;52.562;13.414;2023-02-08T10:03:58;43.58;;;20.85;;
44588;SDS011;30298;52.562;13.414;2023-02-08T10:06:23;44.05;;;21.02;;
44588;SDS011;30298;52.562;13.414;2023-02-08T10:08:50;43.97;;;20.23;;
44588;SDS011;30298;52.562;13.414;2023-02-08T10:11:25;45.80;;;22.58;;
44588;SDS011;30298;52.562;13.414;2023-02-08T10:21:16;42.95;;;21.00;;
44588;SDS011;30298;52.562;13.414;2023-02-08T10:28:57;45.37;;;21.77;;
44588;SDS011;30298;52.562;13.414;2023-02-08T10:36:20;53.00;;;22.43;;
44588;SDS011;30298;52.562;13.414;2023-02-08T10:38:46;44.00;;;21.98;;
44588;SDS011;30298;52.562;13.414;2023-02-08T10:41:25;46.15;;;22.45;;
44588;SDS011;30298;52.562;13.414;2023-02-08T10:43:53;49.53;;;23.02;;
44588;SDS011;30298;52.562;13.414;2023-02-08T10:51:33;43.70;;;21.92;;
44588;SDS011;30298;52.562;13.414;2023-02-08T10:53:58;45.80;;;22.73;;
44588;SDS011;30298;52.562;13.414;2023-02-08T10:58:52;44.17;;;21.35;;
44588;SDS011;30298;52.562;13.414;2023-02-08T11:01:17;43.07;;;21.77;;
44588;SDS011;30298;52.562;13.414;2023-02-08T11:03:59;46.33;;;20.90;;
44588;SDS011;30298;52.562;13.414;2023-02-08T11:06:25;41.22;;;21.58;;
44588;SDS011;30298;52.562;13.414;2023-02-08T11:08:54;49.28;;;22.13;;
44588;SDS011;30298;52.562;13.414;2023-02-08T11:11:20;48.60;;;22.90;;
44588;SDS011;30298;52.562;13.414;2023-02-08T11:13:47;45.37;;;21.53;;
44588;SDS011;30298;52.562;13.414;2023-02-08T11:16:22;46.00;;;21.40;;
44588;SDS011;30298;52.562;13.414;2023-02-08T11:18:57;53.90;;;21.85;;
44588;SDS011;30298;52.562;13.414;2023-02-08T11:23:51;42.60;;;20.57;;
44588;SDS011;30298;52.562;13.414;2023-02-08T11:28:42;40.22;;;20.40;;
44588;SDS011;30298;52.562;13.414;2023-02-08T11:31:17;38.08;;;19.45;;
44588;SDS011;30298;52.562;13.414;2023-02-08T11:34:05;42.25;;;19.75;;
44588;SDS011;30298;52.562;13.414;2023-02-08T11:36:29;40.83;;;19.30;;
44588;SDS011;30298;52.562;13.414;2023-02-08T11:38:55;39.65;;;20.35;;
44588;SDS011;30298;52.562;13.414;2023-02-08T11:41:20;44.20;;;22.13;;
44588;SDS011;30298;52.562;13.414;2023-02-08T11:44:05;44.15;;;21.65;;
44588;SDS011;30298;52.562;13.414;2023-02-08T11:46:32;43.65;;;20.88;;
44588;SDS011;30298;52.562;13.414;2023-02-08T11:48:58;37.83;;;20.45;;
44588;SDS011;30298;52.562;13.414;2023-02-08T11:51:31;43.07;;;20.90;;
44588;SDS011;30298;52.562;13.414;2023-02-08T11:53:58;42.10;;;19.83;;
44588;SDS011;30298;52.562;13.414;2023-02-08T11:58:59;38.03;;;19.70;;
44588;SDS011;30298;52.562;13.414;2023-02-08T12:01:31;40.55;;;19.65;;
44588;SDS011;30298;52.562;13.414;2023-02-08T12:03:58;34.90;;;18.48;;
44588;SDS011;30298;52.562;13.414;2023-02-08T12:22:24;38.47;;;19.85;;
44588;SDS011;30298;52.562;13.414;2023-02-08T12:30:11;37.53;;;19.33;;
44588;SDS011;30298;52.562;13.414;2023-02-08T12:43:26;35.20;;;19.40;;
44588;SDS011;30298;52.562;13.414;2023-02-08T12:46:08;34.35;;;18.92;;
44588;SDS011;30298;52.562;13.414;2023-02-08T12:53:57;34.22;;;18.20;;
44588;SDS011;30298;52.562;13.414;2023-02-08T12:56:26;33.97;;;18.58;;
44588;SDS011;30298;52.562;13.414;2023-02-08T12:58:53;40.22;;;19.98;;
44588;SDS011;30298;52.562;13.414;2023-02-08T13:01:20;44.60;;;19.60;;
44588;SDS011;30298;52.562;13.414;2023-02-08T13:06:17;39.40;;;21.30;;
44588;SDS011;30298;52.562;13.414;2023-02-08T13:08:45;38.15;;;20.33;;
44588;SDS011;30298;52.562;13.414;2023-02-08T13:13:55;36.55;;;19.35;;
44588;SDS011;30298;52.562;13.414;2023-02-08T13:16:23;37.08;;;19.13;;
44588;SDS011;30298;52.562;13.414;2023-02-08T13:18:53;37.80;;;19.15;;
44588;SDS011;30298;52.562;13.414;2023-02-08T13:21:21;43.97;;;21.65;;
44588;SDS011;30298;52.562;13.414;2023-02-08T13:23:48;39.35;;;20.15;;
44588;SDS011;30298;52.562;13.414;2023-02-08T13:26:15;38.00;;;21.17;;
44588;SDS011;30298;52.562;13.414;2023-02-08T13:28:48;37.10;;;19.67;;
44588;SDS011;30298;52.562;13.414;2023-02-08T13:31:22;35.60;;;18.63;;
44588;SDS011;30298;52.562;13.414;2023-02-08T13:33:55;41.60;;;19.88;;
44588;SDS011;30298;52.562;13.414;2023-02-08T13:36:29;35.13;;;20.08;;
44588;SDS011;30298;52.562;13.414;2023-02-08T13:38:57;37.70;;;18.92;;
44588;SDS011;30298;52.562;13.414;2023-02-08T13:41:23;35.42;;;18.42;;
44588;SDS011;30298;52.562;13.414;2023-02-08T13:44:08;38.20;;;20.15;;
44588;SDS011;30298;52.562;13.414;2023-02-08T13:46:45;41.33;;;19.15;;
44588;SDS011;30298;52.562;13.414;2023-02-08T13:49:39;37.63;;;19.27;;
44588;SDS011;30298;52.562;13.414;2023-02-08T13:51:56;38.95;;;19.58;;
44588;SDS011;30298;52.562;13.414;2023-02-08T13:54:22;36.70;;;19.55;;
44588;SDS011;30298;52.562;13.414;2023-02-08T13:56:49;40.47;;;21.17;;
44588;SDS011;30298;52.562;13.414;2023-02-08T14:01:39;34.50;;;20.27;;
44588;SDS011;30298;52.562;13.414;2023-02-08T14:04:28;40.55;;;20.50;;
44588;SDS011;30298;52.562;13.414;2023-02-08T14:07:02;41.58;;;20.15;;
44588;SDS011;30298;52.562;13.414;2023-02-08T14:09:38;36.95;;;20.45;;
44588;SDS011;30298;52.562;13.414;2023-02-08T14:12:11;39.20;;;20.48;;
44588;SDS011;30298;52.562;13.414;2023-02-08T14:14:37;38.20;;;19.60;;
44588;SDS011;30298;52.562;13.414;2023-02-08T14:19:35;37.30;;;18.03;;
44588;SDS011;30298;52.562;13.414;2023-02-08T14:22:02;35.78;;;19.30;;
44588;SDS011;30298;52.562;13.414;2023-02-08T14:24:33;39.75;;;18.80;;
44588;SDS011;30298;52.562;13.414;2023-02-08T14:27:08;36.63;;;18.92;;
44588;SDS011;30298;52.562;13.414;2023-02-08T14:29:35;35.50;;;18.35;;
44588;SDS011;30298;52.562;13.414;2023-02-08T14:32:01;37.45;;;20.73;;
44588;SDS011;30298;52.562;13.414;2023-02-08T14:37:00;38.78;;;19.40;;
44588;SDS011;30298;52.562;13.414;2023-02-08T14:39:27;39.10;;;20.15;;
44588;SDS011;30298;52.562;13.414;2023-02-08T14:47:03;40.75;;;20.30;;
44588;SDS011;30298;52.562;13.414;2023-02-08T14:51:55;39.37;;;19.60;;
44588;SDS011;30298;52.562;13.414;2023-02-08T14:54:23;40.13;;;19.75;;
44588;SDS011;30298;52.562;13.414;2023-02-08T14:56:53;37.05;;;21.27;;
44588;SDS011;30298;52.562;13.414;2023-02-08T14:59:20;40.50;;;21.02;;
44588;SDS011;30298;52.562;13.414;2023-02-08T15:01:58;36.42;;;19.05;;
44588;SDS011;30298;52.562;13.414;2023-02-08T15:14:50;35.85;;;17.95;;
44588;SDS011;30298;52.562;13.414;2023-02-08T15:17:33;40.10;;;18.48;;
44588;SDS011;30298;52.562;13.414;2023-02-08T15:19:58;39.78;;;19.67;;
44588;SDS011;30298;52.562;13.414;2023-02-08T15:24:50;36.63;;;17.90;;
44588;SDS011;30298;52.562;13.414;2023-02-08T15:29:41;31.60;;;16.25;;
44588;SDS011;30298;52.562;13.414;2023-02-08T15:32:11;38.70;;;19.00;;
44588;SDS011;30298;52.562;13.414;2023-02-08T15:34:40;34.20;;;17.10;;
44588;SDS011;30298;52.562;13.414;2023-02-08T15:37:11;35.47;;;18.48;;
44588;SDS011;30298;52.562;13.414;2023-02-08T15:39:39;38.60;;;17.73;;
44588;SDS011;30298;52.562;13.414;2023-02-08T15:42:05;35.70;;;18.58;;
44588;SDS011;30298;52.562;13.414;2023-02-08T15:44:40;41.78;;;20.05;;
44588;SDS011;30298;52.562;13.414;2023-02-08T15:47:05;36.53;;;18.55;;
44588;SDS011;30298;52.562;13.414;2023-02-08T15:49:39;41.75;;;19.48;;
44588;SDS011;30298;52.562;13.414;2023-02-08T15:52:05;40.70;;;18.23;;
44588;SDS011;30298;52.562;13.414;2023-02-08T15:59:29;36.92;;;17.65;;
44588;SDS011;30298;52.562;13.414;2023-02-08T16:01:56;40.70;;;19.25;;
44588;SDS011;30298;52.562;13.414;2023-02-08T16:04:23;36.85;;;18.13;;
44588;SDS011;30298;52.562;13.414;2023-02-08T16:09:21;38.22;;;17.90;;
44588;SDS011;30298;52.562;13.414;2023-02-08T16:11:49;37.80;;;18.77;;
44588;SDS011;30298;52.562;13.414;2023-02-08T16:14:15;35.25;;;16.88;;
44588;SDS011;30298;52.562;13.414;2023-02-08T16:16:43;37.80;;;17.80;;
44588;SDS011;30298;52.562;13.414;2023-02-08T16:21:49;34.13;;;17.15;;
44588;SDS011;30298;52.562;13.414;2023-02-08T16:29:33;36.95;;;17.15;;
44588;SDS011;30298;52.562;13.414;2023-02-08T16:34:43;34.58;;;17.63;;
44588;SDS011;30298;52.562;13.414;2023-02-08T16:39:50;39.45;;;17.60;;
44588;SDS011;30298;52.562;13.414;2023-02-08T16:42:27;37.38;;;17.25;;
44588;SDS011;30298;52.562;13.414;2023-02-08T16:47:34;37.63;;;17.08;;
44588;SDS011;30298;52.562;13.414;2023-02-08T16:50:00;36.20;;;17.08;;
44588;SDS011;30298;52.562;13.414;2023-02-08T16:52:25;37.87;;;16.97;;
44588;SDS011;30298;52.562;13.414;2023-02-08T16:54:50;34.97;;;18.20;;
44588;SDS011;30298;52.562;13.414;2023-02-08T16:57:16;35.47;;;17.73;;
44588;SDS011;30298;52.562;13.414;2023-02-08T16:59:41;35.13;;;17.27;;
44588;SDS011;30298;52.562;13.414;2023-02-08T17:02:13;34.88;;;16.40;;
44588;SDS011;30298;52.562;13.414;2023-02-08T17:04:38;39.37;;;16.63;;
44588;SDS011;30298;52.562;13.414;2023-02-08T17:07:04;39.25;;;17.48;;
44588;SDS011;30298;52.562;13.414;2023-02-08T17:09:29;33.63;;;18.57;;